sensor_id;sensor_type;location;lat;lon;timestamp;pressure;altitude;pressure_sealevel;temperature;humidity
11124;BME280;5616;42.692;23.312;2023-03-04T00:00:07;95161.75;;;7.16;94.22
11124;BME280;5616;42.692;23.312;2023-03-04T00:02:35;95164.63;;;7.21;93.32
11124;BME280;5616;42.692;23.312;2023-03-04T00:05:02;95156.94;;;7.21;93.19
11124;BME280;5616;42.692;23.312;2023-03-04T00:07:29;95156.75;;;7.14;94.37
11124;BME280;5616;42.692;23.312;2023-03-04T00:09:56;95158.06;;;7.26;94.30
11124;BME280;5616;42.692;23.312;2023-03-04T00:12:23;95163.53;;;7.31;93.46
11124;BME280;5616;42.692;23.312;2023-03-04T00:14:51;95158.53;;;7.38;93.64
11124;BME280;5616;42.692;23.312;2023-03-04T00:17:18;95156.16;;;7.36;93.21
11124;BME280;5616;42.692;23.312;2023-03-04T00:19:45;95153.91;;;7.33;93.36
11124;BME280;5616;42.692;23.312;2023-03-04T00:22:12;95144.44;;;7.34;93.74
11124;BME280;5616;42.692;23.312;2023-03-04T00:24:39;95146.50;;;7.38;92.98
11124;BME280;5616;42.692;23.312;2023-03-04T00:27:06;95144.25;;;7.44;92.43
11124;BME280;5616;42.692;23.312;2023-03-04T00:29:32;95152.78;;;7.44;92.43
11124;BME280;5616;42.692;23.312;2023-03-04T00:32:01;95139.63;;;7.47;92.02
11124;BME280;5616;42.692;23.312;2023-03-04T00:34:27;95140.88;;;7.43;92.24
11124;BME280;5616;42.692;23.312;2023-03-04T00:36:54;95141.38;;;7.47;91.40
11124;BME280;5616;42.692;23.312;2023-03-04T00:39:25;95137.69;;;7.49;91.43
11124;BME280;5616;42.692;23.312;2023-03-04T00:41:53;95141.06;;;7.50;91.30
11124;BME280;5616;42.692;23.312;2023-03-04T00:44:20;95143.63;;;7.50;91.09
11124;BME280;5616;42.692;23.312;2023-03-04T00:46:46;95143.94;;;7.47;92.17
11124;BME280;5616;42.692;23.312;2023-03-04T00:49:15;95135.59;;;7.36;91.97
11124;BME280;5616;42.692;23.312;2023-03-04T00:51:41;95134.66;;;7.29;92.69
11124;BME280;5616;42.692;23.312;2023-03-04T00:54:08;95138.66;;;7.32;92.68
11124;BME280;5616;42.692;23.312;2023-03-04T00:56:35;95138.16;;;7.36;92.36
11124;BME280;5616;42.692;23.312;2023-03-04T00:59:03;95129.47;;;7.37;91.27
11124;BME280;5616;42.692;23.312;2023-03-04T01:01:31;95139.13;;;7.44;90.16
11124;BME280;5616;42.692;23.312;2023-03-04T01:03:57;95137.19;;;7.46;90.63
11124;BME280;5616;42.692;23.312;2023-03-04T01:06:26;95142.69;;;7.43;91.08
11124;BME280;5616;42.692;23.312;2023-03-04T01:08:53;95130.28;;;7.46;90.69
11124;BME280;5616;42.692;23.312;2023-03-04T01:11:20;95142.34;;;7.46;90.26
11124;BME280;5616;42.692;23.312;2023-03-04T01:13:47;95133.03;;;7.36;90.62
11124;BME280;5616;42.692;23.312;2023-03-04T01:16:14;95129.97;;;7.33;90.35
11124;BME280;5616;42.692;23.312;2023-03-04T01:18:41;95131.59;;;7.34;90.50
11124;BME280;5616;42.692;23.312;2023-03-04T01:21:08;95123.88;;;7.34;90.33
11124;BME280;5616;42.692;23.312;2023-03-04T01:23:36;95121.00;;;7.37;90.35
11124;BME280;5616;42.692;23.312;2023-03-04T01:26:03;95117.94;;;7.42;89.47
11124;BME280;5616;42.692;23.312;2023-03-04T01:28:30;95122.75;;;7.36;89.28
11124;BME280;5616;42.692;23.312;2023-03-04T01:31:00;95123.06;;;7.33;89.72
11124;BME280;5616;42.692;23.312;2023-03-04T01:33:27;95119.38;;;7.36;90.16
11124;BME280;5616;42.692;23.312;2023-03-04T01:35:54;95118.44;;;7.37;90.07
11124;BME280;5616;42.692;23.312;2023-03-04T01:38:21;95118.88;;;7.24;89.81
11124;BME280;5616;42.692;23.312;2023-03-04T01:40:49;95105.72;;;7.27;90.35
11124;BME280;5616;42.692;23.312;2023-03-04T01:43:20;95100.59;;;7.27;90.56
11124;BME280;5616;42.692;23.312;2023-03-04T01:45:49;95103.81;;;7.29;90.26
11124;BME280;5616;42.692;23.312;2023-03-04T01:48:19;95099.31;;;7.15;90.00
11124;BME280;5616;42.692;23.312;2023-03-04T01:50:48;95095.28;;;6.97;91.36
11124;BME280;5616;42.692;23.312;2023-03-04T01:53:19;95093.84;;;7.02;91.79
11124;BME280;5616;42.692;23.312;2023-03-04T01:55:46;95094.97;;;7.08;90.66
11124;BME280;5616;42.692;23.312;2023-03-04T01:58:15;95095.13;;;7.14;89.96
11124;BME280;5616;42.692;23.312;2023-03-04T02:00:42;95093.53;;;7.05;91.02
11124;BME280;5616;42.692;23.312;2023-03-04T02:03:12;95094.81;;;7.09;90.23
11124;BME280;5616;42.692;23.312;2023-03-04T02:05:41;95090.78;;;7.07;90.78
11124;BME280;5616;42.692;23.312;2023-03-04T02:08:08;95096.25;;;7.04;90.96
11124;BME280;5616;42.692;23.312;2023-03-04T02:10:36;95095.28;;;6.97;91.41
11124;BME280;5616;42.692;23.312;2023-03-04T02:13:04;95093.84;;;7.02;90.46
11124;BME280;5616;42.692;23.312;2023-03-04T02:15:33;95090.97;;;7.05;91.03
11124;BME280;5616;42.692;23.312;2023-03-04T02:18:00;95088.72;;;7.02;91.78
11124;BME280;5616;42.692;23.312;2023-03-04T02:20:35;95092.53;;;6.98;92.06
11124;BME280;5616;42.692;23.312;2023-03-04T02:23:09;95090.13;;;6.97;91.04
11124;BME280;5616;42.692;23.312;2023-03-04T02:25:42;95085.63;;;6.91;92.32
11124;BME280;5616;42.692;23.312;2023-03-04T02:28:12;95089.59;;;6.61;92.40
11124;BME280;5616;42.692;23.312;2023-03-04T02:30:39;95084.13;;;6.64;92.91
11124;BME280;5616;42.692;23.312;2023-03-04T02:33:13;95089.28;;;6.72;92.30
11124;BME280;5616;42.692;23.312;2023-03-04T02:35:40;95089.13;;;6.65;93.12
11124;BME280;5616;42.692;23.312;2023-03-04T02:38:08;95087.31;;;6.50;93.40
11124;BME280;5616;42.692;23.312;2023-03-04T02:40:36;95082.47;;;6.47;93.80
11124;BME280;5616;42.692;23.312;2023-03-04T02:43:03;95065.00;;;6.42;93.73
11124;BME280;5616;42.692;23.312;2023-03-04T02:45:35;95070.19;;;6.58;92.90
11124;BME280;5616;42.692;23.312;2023-03-04T02:48:04;95079.19;;;6.70;93.00
11124;BME280;5616;42.692;23.312;2023-03-04T02:50:34;95071.66;;;6.77;92.23
11124;BME280;5616;42.692;23.312;2023-03-04T02:53:01;95071.50;;;6.70;92.80
11124;BME280;5616;42.692;23.312;2023-03-04T02:55:28;95071.31;;;6.72;92.23
11124;BME280;5616;42.692;23.312;2023-03-04T02:57:55;95064.28;;;6.66;91.92
11124;BME280;5616;42.692;23.312;2023-03-04T03:00:22;95071.31;;;6.72;91.76
11124;BME280;5616;42.692;23.312;2023-03-04T03:02:51;95075.00;;;6.69;92.06
11124;BME280;5616;42.692;23.312;2023-03-04T03:05:19;95077.75;;;6.68;91.54
11124;BME280;5616;42.692;23.312;2023-03-04T03:07:45;95075.97;;;6.68;92.03
11124;BME280;5616;42.692;23.312;2023-03-04T03:10:13;95077.75;;;6.68;92.06
11124;BME280;5616;42.692;23.312;2023-03-04T03:12:40;95073.19;;;6.54;92.31
11124;BME280;5616;42.692;23.312;2023-03-04T03:15:08;95073.69;;;6.49;92.80
11124;BME280;5616;42.692;23.312;2023-03-04T03:17:35;95078.50;;;6.52;92.12
11124;BME280;5616;42.692;23.312;2023-03-04T03:20:04;95076.88;;;6.51;93.09
11124;BME280;5616;42.692;23.312;2023-03-04T03:22:30;95082.00;;;6.51;92.43
11124;BME280;5616;42.692;23.312;2023-03-04T03:24:57;95079.63;;;6.50;92.42
11124;BME280;5616;42.692;23.312;2023-03-04T03:27:24;95077.31;;;6.39;92.69
11124;BME280;5616;42.692;23.312;2023-03-04T03:29:51;95075.38;;;6.33;93.02
11124;BME280;5616;42.692;23.312;2023-03-04T03:32:18;95076.50;;;6.30;93.13
11124;BME280;5616;42.692;23.312;2023-03-04T03:34:49;95075.38;;;6.33;92.61
11124;BME280;5616;42.692;23.312;2023-03-04T03:37:18;95076.78;;;6.27;93.31
11124;BME280;5616;42.692;23.312;2023-03-04T03:39:45;95070.06;;;6.26;93.09
11124;BME280;5616;42.692;23.312;2023-03-04T03:42:12;95066.38;;;6.21;93.50
11124;BME280;5616;42.692;23.312;2023-03-04T03:44:39;95071.31;;;6.22;93.15
11124;BME280;5616;42.692;23.312;2023-03-04T03:47:06;95067.81;;;6.23;92.89
11124;BME280;5616;42.692;23.312;2023-03-04T03:49:32;95067.81;;;6.23;92.72
11124;BME280;5616;42.692;23.312;2023-03-04T03:51:59;95068.63;;;6.24;92.57
11124;BME280;5616;42.692;23.312;2023-03-04T03:54:27;95065.38;;;6.22;92.23
11124;BME280;5616;42.692;23.312;2023-03-04T03:56:54;95063.47;;;6.15;93.60
11124;BME280;5616;42.692;23.312;2023-03-04T03:59:21;95055.91;;;6.14;93.16
11124;BME280;5616;42.692;23.312;2023-03-04T04:01:48;95059.59;;;6.11;93.02
11124;BME280;5616;42.692;23.312;2023-03-04T04:04:15;95042.72;;;6.01;93.54
11124;BME280;5616;42.692;23.312;2023-03-04T04:06:42;95049.50;;;6.10;92.87
11124;BME280;5616;42.692;23.312;2023-03-04T04:09:09;95034.53;;;5.89;93.37
11124;BME280;5616;42.692;23.312;2023-03-04T04:11:37;95043.34;;;5.95;94.23
11124;BME280;5616;42.692;23.312;2023-03-04T04:14:04;95048.97;;;5.98;94.14
11124;BME280;5616;42.692;23.312;2023-03-04T04:16:31;95047.06;;;6.00;93.46
11124;BME280;5616;42.692;23.312;2023-03-04T04:18:57;95048.53;;;6.03;93.92
11124;BME280;5616;42.692;23.312;2023-03-04T04:21:24;95046.72;;;6.03;93.73
11124;BME280;5616;42.692;23.312;2023-03-04T04:23:51;95046.34;;;5.90;93.88
11124;BME280;5616;42.692;23.312;2023-03-04T04:26:18;95048.72;;;5.84;94.75
11124;BME280;5616;42.692;23.312;2023-03-04T04:28:47;95050.31;;;5.85;95.07
11124;BME280;5616;42.692;23.312;2023-03-04T04:31:14;95049.09;;;5.89;94.73
11124;BME280;5616;42.692;23.312;2023-03-04T04:33:40;95046.34;;;5.90;94.54
11124;BME280;5616;42.692;23.312;2023-03-04T04:36:10;95052.28;;;5.91;94.06
11124;BME280;5616;42.692;23.312;2023-03-04T04:38:38;95049.28;;;6.03;94.19
11124;BME280;5616;42.692;23.312;2023-03-04T04:41:10;95045.97;;;6.03;93.57
11124;BME280;5616;42.692;23.312;2023-03-04T04:43:41;95052.31;;;5.99;93.83
11124;BME280;5616;42.692;23.312;2023-03-04T04:46:09;95046.56;;;5.97;93.21
11124;BME280;5616;42.692;23.312;2023-03-04T04:48:36;95048.31;;;5.96;93.25
11124;BME280;5616;42.692;23.312;2023-03-04T04:51:03;95060.19;;;5.97;94.16
11124;BME280;5616;42.692;23.312;2023-03-04T04:53:30;95054.56;;;5.94;93.24
11124;BME280;5616;42.692;23.312;2023-03-04T04:55:57;95053.59;;;5.95;93.72
11124;BME280;5616;42.692;23.312;2023-03-04T04:58:24;95052.94;;;5.93;93.75
11124;BME280;5616;42.692;23.312;2023-03-04T05:00:51;95063.50;;;5.90;93.79
11124;BME280;5616;42.692;23.312;2023-03-04T05:03:19;95068.13;;;5.86;94.56
11124;BME280;5616;42.692;23.312;2023-03-04T05:05:45;95073.53;;;5.83;94.55
11124;BME280;5616;42.692;23.312;2023-03-04T05:08:12;95073.25;;;5.86;94.88
11124;BME280;5616;42.692;23.312;2023-03-04T05:10:39;95083.50;;;5.86;94.87
11124;BME280;5616;42.692;23.312;2023-03-04T05:13:06;95080.94;;;5.86;94.96
11124;BME280;5616;42.692;23.312;2023-03-04T05:15:32;95092.03;;;5.95;94.83
11124;BME280;5616;42.692;23.312;2023-03-04T05:17:59;95085.13;;;5.87;95.00
11124;BME280;5616;42.692;23.312;2023-03-04T05:20:27;95085.13;;;5.95;95.27
11124;BME280;5616;42.692;23.312;2023-03-04T05:22:54;95072.03;;;5.98;94.83
11124;BME280;5616;42.692;23.312;2023-03-04T05:25:21;95078.03;;;6.15;94.44
11124;BME280;5616;42.692;23.312;2023-03-04T05:27:48;95084.94;;;6.23;94.42
11124;BME280;5616;42.692;23.312;2023-03-04T05:30:15;95084.44;;;6.11;94.75
11124;BME280;5616;42.692;23.312;2023-03-04T05:32:42;95092.53;;;5.98;95.18
11124;BME280;5616;42.692;23.312;2023-03-04T05:35:08;95090.63;;;6.00;95.55
11124;BME280;5616;42.692;23.312;2023-03-04T05:37:37;95097.06;;;6.04;96.08
11124;BME280;5616;42.692;23.312;2023-03-04T05:40:04;95091.34;;;6.19;95.34
11124;BME280;5616;42.692;23.312;2023-03-04T05:42:31;95087.84;;;6.28;95.19
11124;BME280;5616;42.692;23.312;2023-03-04T05:44:58;95092.88;;;6.37;94.91
11124;BME280;5616;42.692;23.312;2023-03-04T05:47:25;95092.50;;;6.32;94.27
11124;BME280;5616;42.692;23.312;2023-03-04T05:49:52;95089.16;;;6.32;94.37
11124;BME280;5616;42.692;23.312;2023-03-04T05:52:18;95101.34;;;6.38;94.79
11124;BME280;5616;42.692;23.312;2023-03-04T05:54:47;95095.28;;;6.39;94.26
11124;BME280;5616;42.692;23.312;2023-03-04T05:57:13;95099.78;;;6.45;94.00
11124;BME280;5616;42.692;23.312;2023-03-04T05:59:40;95104.94;;;6.45;93.83
11124;BME280;5616;42.692;23.312;2023-03-04T06:02:07;95108.41;;;6.36;93.73
11124;BME280;5616;42.692;23.312;2023-03-04T06:04:34;95105.91;;;6.52;93.49
11124;BME280;5616;42.692;23.312;2023-03-04T06:07:01;95105.28;;;6.58;92.85
11124;BME280;5616;42.692;23.312;2023-03-04T06:09:27;95110.75;;;6.63;92.19
11124;BME280;5616;42.692;23.312;2023-03-04T06:11:55;95117.47;;;6.64;92.38
11124;BME280;5616;42.692;23.312;2023-03-04T06:14:22;95115.59;;;6.74;91.96
11124;BME280;5616;42.692;23.312;2023-03-04T06:16:49;95110.81;;;6.79;92.15
11124;BME280;5616;42.692;23.312;2023-03-04T06:19:16;95111.25;;;6.74;91.33
11124;BME280;5616;42.692;23.312;2023-03-04T06:21:43;95112.91;;;6.84;91.96
11124;BME280;5616;42.692;23.312;2023-03-04T06:24:09;95111.63;;;6.96;91.32
11124;BME280;5616;42.692;23.312;2023-03-04T06:26:36;95121.56;;;6.91;90.87
11124;BME280;5616;42.692;23.312;2023-03-04T06:29:05;95115.28;;;6.85;90.64
11124;BME280;5616;42.692;23.312;2023-03-04T06:31:32;95122.38;;;6.99;90.45
11124;BME280;5616;42.692;23.312;2023-03-04T06:33:59;95123.06;;;7.17;90.66
11124;BME280;5616;42.692;23.312;2023-03-04T06:36:25;95122.59;;;7.30;90.21
11124;BME280;5616;42.692;23.312;2023-03-04T06:38:52;95119.38;;;7.44;88.68
11124;BME280;5616;42.692;23.312;2023-03-04T06:41:19;95120.19;;;7.61;87.34
11124;BME280;5616;42.692;23.312;2023-03-04T06:43:46;95123.88;;;7.74;87.20
11124;BME280;5616;42.692;23.312;2023-03-04T06:46:14;95131.25;;;7.77;87.19
11124;BME280;5616;42.692;23.312;2023-03-04T06:48:41;95129.66;;;7.84;86.73
11124;BME280;5616;42.692;23.312;2023-03-04T06:51:09;95127.22;;;7.83;87.19
11124;BME280;5616;42.692;23.312;2023-03-04T06:53:37;95126.59;;;7.81;86.12
11124;BME280;5616;42.692;23.312;2023-03-04T06:56:05;95132.22;;;7.68;86.23
11124;BME280;5616;42.692;23.312;2023-03-04T06:58:32;95122.75;;;7.61;85.60
11124;BME280;5616;42.692;23.312;2023-03-04T07:01:09;95127.41;;;7.81;85.33
11124;BME280;5616;42.692;23.312;2023-03-04T07:03:37;95130.41;;;7.93;84.36
11124;BME280;5616;42.692;23.312;2023-03-04T07:06:04;95131.88;;;7.95;83.38
11124;BME280;5616;42.692;23.312;2023-03-04T07:08:31;95131.84;;;8.03;82.58
11124;BME280;5616;42.692;23.312;2023-03-04T07:10:58;95141.66;;;8.08;81.93
11124;BME280;5616;42.692;23.312;2023-03-04T07:13:25;95135.25;;;7.96;82.90
11124;BME280;5616;42.692;23.312;2023-03-04T07:15:52;95133.66;;;7.87;84.06
11124;BME280;5616;42.692;23.312;2023-03-04T07:18:18;95140.06;;;7.83;83.65
11124;BME280;5616;42.692;23.312;2023-03-04T07:20:50;95140.06;;;7.83;84.66
11124;BME280;5616;42.692;23.312;2023-03-04T07:23:17;95145.38;;;7.97;83.18
11124;BME280;5616;42.692;23.312;2023-03-04T07:25:44;95140.69;;;8.09;82.05
11124;BME280;5616;42.692;23.312;2023-03-04T07:28:11;95139.69;;;8.26;82.06
11124;BME280;5616;42.692;23.312;2023-03-04T07:30:37;95139.41;;;8.29;82.49
11124;BME280;5616;42.692;23.312;2023-03-04T07:33:04;95134.25;;;8.21;83.00
11124;BME280;5616;42.692;23.312;2023-03-04T07:35:31;95139.38;;;8.37;83.01
11124;BME280;5616;42.692;23.312;2023-03-04T07:37:59;95140.72;;;8.56;82.22
11124;BME280;5616;42.692;23.312;2023-03-04T07:40:26;95143.09;;;8.74;80.46
11124;BME280;5616;42.692;23.312;2023-03-04T07:42:54;95143.25;;;8.72;80.13
11124;BME280;5616;42.692;23.312;2023-03-04T07:45:22;95143.69;;;8.45;80.16
11124;BME280;5616;42.692;23.312;2023-03-04T07:47:49;95136.25;;;8.58;80.90
11124;BME280;5616;42.692;23.312;2023-03-04T07:50:17;95140.25;;;8.60;80.17
11124;BME280;5616;42.692;23.312;2023-03-04T07:52:45;95137.25;;;8.80;80.74
11124;BME280;5616;42.692;23.312;2023-03-04T07:55:15;95136.72;;;8.92;78.26
11124;BME280;5616;42.692;23.312;2023-03-04T07:57:43;95135.03;;;9.07;77.61
11124;BME280;5616;42.692;23.312;2023-03-04T08:00:13;95137.31;;;9.25;76.34
11124;BME280;5616;42.692;23.312;2023-03-04T08:02:40;95119.13;;;9.27;75.71
11124;BME280;5616;42.692;23.312;2023-03-04T08:05:07;95131.16;;;9.34;76.55
11124;BME280;5616;42.692;23.312;2023-03-04T08:07:34;95132.06;;;9.41;76.61
11124;BME280;5616;42.692;23.312;2023-03-04T08:10:03;95124.34;;;9.41;76.94
11124;BME280;5616;42.692;23.312;2023-03-04T08:12:31;95125.38;;;9.32;77.06
11124;BME280;5616;42.692;23.312;2023-03-04T08:14:58;95137.56;;;9.38;75.94
11124;BME280;5616;42.692;23.312;2023-03-04T08:17:27;95130.53;;;9.32;76.05
11124;BME280;5616;42.692;23.312;2023-03-04T08:19:55;95131.25;;;9.18;75.58
11124;BME280;5616;42.692;23.312;2023-03-04T08:22:21;95133.22;;;9.16;77.11
11124;BME280;5616;42.692;23.312;2023-03-04T08:24:48;95133.03;;;9.17;79.92
11124;BME280;5616;42.692;23.312;2023-03-04T08:27:15;95125.59;;;9.00;78.40
11124;BME280;5616;42.692;23.312;2023-03-04T08:29:43;95132.38;;;8.93;77.39
11124;BME280;5616;42.692;23.312;2023-03-04T08:32:10;95135.25;;;8.98;77.51
11124;BME280;5616;42.692;23.312;2023-03-04T08:34:38;95125.25;;;9.03;76.33
11124;BME280;5616;42.692;23.312;2023-03-04T08:37:04;95124.53;;;9.09;76.00
11124;BME280;5616;42.692;23.312;2023-03-04T08:39:31;95124.53;;;9.09;75.13
11124;BME280;5616;42.692;23.312;2023-03-04T08:42:00;95122.63;;;9.11;75.98
11124;BME280;5616;42.692;23.312;2023-03-04T08:44:27;95124.34;;;9.18;75.80
11124;BME280;5616;42.692;23.312;2023-03-04T08:46:55;95120.94;;;8.95;77.17
11124;BME280;5616;42.692;23.312;2023-03-04T08:49:22;95123.06;;;9.14;76.67
11124;BME280;5616;42.692;23.312;2023-03-04T08:51:49;95125.72;;;9.29;75.21
11124;BME280;5616;42.692;23.312;2023-03-04T08:54:16;95120.16;;;9.17;75.45
11124;BME280;5616;42.692;23.312;2023-03-04T08:56:43;95114.66;;;8.98;77.08
11124;BME280;5616;42.692;23.312;2023-03-04T08:59:10;95117.38;;;9.27;76.00
11124;BME280;5616;42.692;23.312;2023-03-04T09:01:37;95122.97;;;9.53;75.82
11124;BME280;5616;42.692;23.312;2023-03-04T09:04:05;95114.66;;;9.43;75.61
11124;BME280;5616;42.692;23.312;2023-03-04T09:06:32;95116.78;;;9.40;76.08
11124;BME280;5616;42.692;23.312;2023-03-04T09:08:58;95116.66;;;9.33;75.01
11124;BME280;5616;42.692;23.312;2023-03-04T09:11:25;95107.78;;;9.58;75.09
11124;BME280;5616;42.692;23.312;2023-03-04T09:13:52;95111.50;;;9.56;73.95
11124;BME280;5616;42.692;23.312;2023-03-04T09:16:19;95107.06;;;9.64;74.25
11124;BME280;5616;42.692;23.312;2023-03-04T09:18:46;95100.53;;;9.76;72.22
11124;BME280;5616;42.692;23.312;2023-03-04T09:21:14;95105.81;;;9.98;73.05
11124;BME280;5616;42.692;23.312;2023-03-04T09:23:43;95099.97;;;10.33;71.18
11124;BME280;5616;42.692;23.312;2023-03-04T09:26:19;95101.16;;;10.45;69.28
11124;BME280;5616;42.692;23.312;2023-03-04T09:28:49;95099.63;;;10.36;68.64
11124;BME280;5616;42.692;23.312;2023-03-04T09:31:17;95096.78;;;10.46;68.11
11124;BME280;5616;42.692;23.312;2023-03-04T09:33:44;95097.00;;;10.65;68.54
11124;BME280;5616;42.692;23.312;2023-03-04T09:36:12;95091.59;;;10.60;68.07
11124;BME280;5616;42.692;23.312;2023-03-04T09:38:41;95087.53;;;10.36;69.54
11124;BME280;5616;42.692;23.312;2023-03-04T09:41:11;95085.81;;;10.43;68.36
11124;BME280;5616;42.692;23.312;2023-03-04T09:43:39;95085.19;;;10.41;69.15
11124;BME280;5616;42.692;23.312;2023-03-04T09:46:07;95080.59;;;10.37;68.44
11124;BME280;5616;42.692;23.312;2023-03-04T09:48:39;95090.72;;;10.38;68.28
11124;BME280;5616;42.692;23.312;2023-03-04T09:51:19;95082.56;;;10.35;69.21
11124;BME280;5616;42.692;23.312;2023-03-04T09:54:00;95084.03;;;10.59;68.83
11124;BME280;5616;42.692;23.312;2023-03-04T09:56:32;95076.81;;;10.69;67.70
11124;BME280;5616;42.692;23.312;2023-03-04T09:59:06;95076.00;;;10.54;68.99
11124;BME280;5616;42.692;23.312;2023-03-04T10:01:41;95078.94;;;10.65;69.26
11124;BME280;5616;42.692;23.312;2023-03-04T10:04:13;95075.53;;;10.79;70.10
11124;BME280;5616;42.692;23.312;2023-03-04T10:06:43;95072.19;;;11.00;67.79
11124;BME280;5616;42.692;23.312;2023-03-04T10:09:20;95072.00;;;11.23;67.51
11124;BME280;5616;42.692;23.312;2023-03-04T10:11:56;95068.13;;;11.33;66.24
11124;BME280;5616;42.692;23.312;2023-03-04T10:14:34;95065.97;;;11.16;66.87
11124;BME280;5616;42.692;23.312;2023-03-04T10:17:07;95064.00;;;11.18;66.63
11124;BME280;5616;42.692;23.312;2023-03-04T10:19:52;95057.28;;;11.23;66.37
11124;BME280;5616;42.692;23.312;2023-03-04T10:22:26;95057.28;;;11.44;66.61
11124;BME280;5616;42.692;23.312;2023-03-04T10:24:58;95053.25;;;11.63;65.60
11124;BME280;5616;42.692;23.312;2023-03-04T10:27:27;95045.56;;;11.70;66.48
11124;BME280;5616;42.692;23.312;2023-03-04T10:29:55;95045.94;;;11.66;65.90
11124;BME280;5616;42.692;23.312;2023-03-04T10:32:24;95056.44;;;11.65;65.58
11124;BME280;5616;42.692;23.312;2023-03-04T10:34:51;95036.38;;;11.39;65.46
11124;BME280;5616;42.692;23.312;2023-03-04T10:37:18;95037.91;;;11.34;65.74
11124;BME280;5616;42.692;23.312;2023-03-04T10:39:45;95027.47;;;11.48;65.64
11124;BME280;5616;42.692;23.312;2023-03-04T10:42:27;95029.38;;;11.61;66.17
11124;BME280;5616;42.692;23.312;2023-03-04T10:45:01;95025.69;;;11.70;68.02
11124;BME280;5616;42.692;23.312;2023-03-04T10:47:30;95022.59;;;11.60;66.33
11124;BME280;5616;42.692;23.312;2023-03-04T10:50:00;95021.78;;;11.59;66.22
11124;BME280;5616;42.692;23.312;2023-03-04T10:52:29;95015.41;;;11.55;65.76
11124;BME280;5616;42.692;23.312;2023-03-04T10:54:58;95006.00;;;11.48;68.19
11124;BME280;5616;42.692;23.312;2023-03-04T10:57:33;95006.47;;;11.09;68.09
11124;BME280;5616;42.692;23.312;2023-03-04T11:00:02;94989.38;;;11.08;68.09
11124;BME280;5616;42.692;23.312;2023-03-04T11:02:30;94997.25;;;11.21;67.40
11124;BME280;5616;42.692;23.312;2023-03-04T11:05:06;94996.69;;;11.26;66.33
11124;BME280;5616;42.692;23.312;2023-03-04T11:07:38;94987.75;;;11.28;68.20
11124;BME280;5616;42.692;23.312;2023-03-04T11:10:14;94981.31;;;11.18;69.43
11124;BME280;5616;42.692;23.312;2023-03-04T11:12:48;94985.66;;;11.17;70.04
11124;BME280;5616;42.692;23.312;2023-03-04T11:15:17;94975.44;;;11.30;67.65
11124;BME280;5616;42.692;23.312;2023-03-04T11:17:49;94967.03;;;11.22;68.79
11124;BME280;5616;42.692;23.312;2023-03-04T11:20:25;94965.88;;;11.24;68.47
11124;BME280;5616;42.692;23.312;2023-03-04T11:22:56;94960.66;;;10.96;69.11
11124;BME280;5616;42.692;23.312;2023-03-04T11:25:26;94958.50;;;10.79;70.32
11124;BME280;5616;42.692;23.312;2023-03-04T11:27:57;94947.63;;;10.83;70.94
11124;BME280;5616;42.692;23.312;2023-03-04T11:30:37;94952.38;;;10.59;70.99
11124;BME280;5616;42.692;23.312;2023-03-04T11:33:13;94952.63;;;10.64;71.58
11124;BME280;5616;42.692;23.312;2023-03-04T11:35:46;94939.94;;;10.69;70.32
11124;BME280;5616;42.692;23.312;2023-03-04T11:38:18;94934.56;;;10.91;70.81
11124;BME280;5616;42.692;23.312;2023-03-04T11:40:49;94942.69;;;10.67;70.90
11124;BME280;5616;42.692;23.312;2023-03-04T11:43:25;94945.75;;;10.77;68.48
11124;BME280;5616;42.692;23.312;2023-03-04T11:46:20;94937.16;;;10.70;68.70
11124;BME280;5616;42.692;23.312;2023-03-04T11:49:04;94929.16;;;10.86;70.13
11124;BME280;5616;42.692;23.312;2023-03-04T11:51:37;94935.41;;;10.98;69.79
11124;BME280;5616;42.692;23.312;2023-03-04T11:54:15;94921.97;;;11.03;70.44
11124;BME280;5616;42.692;23.312;2023-03-04T11:56:44;94923.53;;;11.04;70.66
11124;BME280;5616;42.692;23.312;2023-03-04T11:59:33;94923.97;;;11.07;69.84
11124;BME280;5616;42.692;23.312;2023-03-04T12:02:14;94928.88;;;11.24;68.08
11124;BME280;5616;42.692;23.312;2023-03-04T12:05:10;94918.78;;;11.29;67.57
11124;BME280;5616;42.692;23.312;2023-03-04T12:08:02;94917.63;;;11.10;67.04
11124;BME280;5616;42.692;23.312;2023-03-04T12:10:35;94923.47;;;11.19;67.77
11124;BME280;5616;42.692;23.312;2023-03-04T12:13:35;94915.22;;;11.30;67.62
11124;BME280;5616;42.692;23.312;2023-03-04T12:16:29;94912.56;;;11.23;68.11
11124;BME280;5616;42.692;23.312;2023-03-04T12:19:10;94905.69;;;11.37;66.88
11124;BME280;5616;42.692;23.312;2023-03-04T12:22:02;94899.16;;;11.41;66.81
11124;BME280;5616;42.692;23.312;2023-03-04T12:25:02;94899.56;;;11.44;66.75
11124;BME280;5616;42.692;23.312;2023-03-04T12:27:39;94886.34;;;11.26;68.60
11124;BME280;5616;42.692;23.312;2023-03-04T12:30:20;94892.94;;;11.35;66.83
11124;BME280;5616;42.692;23.312;2023-03-04T12:32:57;94894.59;;;11.43;67.01
11124;BME280;5616;42.692;23.312;2023-03-04T12:35:35;94889.44;;;11.43;66.19
11124;BME280;5616;42.692;23.312;2023-03-04T12:38:11;94887.59;;;11.37;66.95
11124;BME280;5616;42.692;23.312;2023-03-04T12:40:46;94891.00;;;11.44;68.53
11124;BME280;5616;42.692;23.312;2023-03-04T12:43:29;94880.38;;;11.26;67.08
11124;BME280;5616;42.692;23.312;2023-03-04T12:46:05;94877.56;;;11.21;67.78
11124;BME280;5616;42.692;23.312;2023-03-04T12:48:40;94875.25;;;11.32;67.40
11124;BME280;5616;42.692;23.312;2023-03-04T12:51:24;94878.66;;;11.39;66.58
11124;BME280;5616;42.692;23.312;2023-03-04T12:54:05;94865.31;;;11.36;68.32
11124;BME280;5616;42.692;23.312;2023-03-04T12:56:40;94870.34;;;11.44;67.23
11124;BME280;5616;42.692;23.312;2023-03-04T12:59:13;94858.00;;;11.46;67.76
11124;BME280;5616;42.692;23.312;2023-03-04T13:01:44;94868.06;;;11.28;68.16
11124;BME280;5616;42.692;23.312;2023-03-04T13:04:22;94857.13;;;11.26;67.39
11124;BME280;5616;42.692;23.312;2023-03-04T13:07:07;94854.00;;;11.02;69.45
11124;BME280;5616;42.692;23.312;2023-03-04T13:09:42;94848.81;;;11.02;69.38
11124;BME280;5616;42.692;23.312;2023-03-04T13:12:14;94843.69;;;11.09;68.29
11124;BME280;5616;42.692;23.312;2023-03-04T13:18:01;94839.72;;;10.79;70.15
11124;BME280;5616;42.692;23.312;2023-03-04T13:20:36;94835.22;;;10.87;69.85
11124;BME280;5616;42.692;23.312;2023-03-04T13:23:20;94826.47;;;10.61;70.52